Main page
METAR-TAF:

METAR-TAF

Airports :

Vermilion Regional Airport

Danville, Illinois, United States

latitude: 40-11-58N, longitude: 087-35-44W, elevation: 695 ft

Current weather observation

The report was made 25 minutes ago, at 22:15 UTC
Wind 3 mph from the South
Temperature 90°F
Humidity 49%
Pressure 30.20 in. Hg
Visibility: 10 miles
Scattered clouds at a height of 6000 ft
Scattered clouds at a height of 8000 ft

METAR: KDNV 192215Z AUTO 17003KT 10SM SCT060 SCT080 32/20 A3020 RMK AO2 T03230199

Time: 17:40 (22:40 UTC)


TAF: missing

Weather observations and forecasts of more than 4000 airports (METAR and TAF reports).

The available stations are represented by yellow and red dots on the map.

Hover mouse over dot to see the name of the station.

Then click to see weather observations and forecasts.

To change the map : click on the green buttons with a black cross to zoom in, on the green button with a dash to zoom out, or on the green arrows for adjacent maps.


METAR-TAF: